Flight Track Log - Related Links

Times and Time Zones

All times are in EDT time to prevent confusion due to time zone crossing. See the N691RC flight status page for this flight to view local times or setup timezone preferences in your user account.

Time Position Orientation Groundspeed Altitude Reporting Facility
EDT Latitude Longitude Course Direction KTS MPH feet Rate Location/Type
Tue 07:46:15 AM 40.8333 -74.0833 252° West 193 222 900  Level New York TRACON
Tue 07:47:09 AM 40.8167 -74.1500 252° West 202 232 1,700 2,211 Climbing New York TRACON
Tue 07:48:09 AM 40.8167 -74.2333 270° West 252 290 5,100 2,200 Climbing New York TRACON
Tue 07:49:09 AM 40.7667 -74.3000 225° Southwest 274 315 6,100 500 Climbing New York TRACON
Tue 07:50:09 AM 40.7000 -74.3000 180° South 277 319 6,100  Level New York TRACON
Tue 07:51:15 AM 40.6167 -74.2833 171° South 275 316 6,100  Level New York TRACON
Tue 07:52:15 AM 40.5333 -74.2667 171° South 280 322 6,100  Level New York TRACON
Tue 07:53:09 AM 40.4667 -74.2333 159° South 280 322 6,100 659 Level New York TRACON
Tue 07:55:17 AM 40.3167 -74.1764 164° South 285 328 8,100 1,564 Climbing New York Center
Tue 07:56:17 AM 40.2350 -74.1886 187° South 285 328 11,000 2,622 Climbing New York Center
Tue 07:57:16 AM 40.1425 -74.2139 192° South 327 376 13,300 2,723 Climbing New York Center
Tue 07:58:16 AM 40.0372 -74.2547 197° South 381 438 16,400 2,607 Climbing New York Center
Tue 07:59:18 AM 39.9542 -74.3075 206° Southwest 409 471 18,600 2,874 Climbing New York Center
Tue 08:00:15 AM 39.8450 -74.4072 215° Southwest 430 495 22,100 2,769 Climbing New York Center
Tue 08:01:15 AM 39.7408 -74.5342 223° Southwest 465 535 24,000 776 Climbing New York Center
Tue 08:02:42 AM 39.6206 -74.6917 225° Southwest 493 567 24,000  Level Washington Center
Tue 08:03:42 AM 39.5297 -74.8114 225° Southwest 479 551 24,000 1,488 Level Washington Center
Tue 08:04:43 AM 39.4408 -74.9278 225° Southwest 466 536 27,000 3,076 Climbing Washington Center
Tue 08:05:41 AM 39.3517 -75.0442 225° Southwest 459 528 30,100 3,250 Climbing Washington Center
Tue 08:06:43 AM 39.2500 -75.1333 214° Southwest 459 528 33,500 1,918 Climbing Washington Center
Tue 08:07:43 AM 39.1294 -75.1850 198° South 450 518 34,000 694 Climbing Washington Center
Tue 08:08:44 AM 39.0108 -75.2364 199° South 455 524 34,900 1,271 Climbing Washington Center
Tue 08:09:41 AM 38.8836 -75.2878 197° South 461 531 36,500 2,168 Climbing Washington Center
Tue 08:10:43 AM 38.7628 -75.3442 200° South 468 539 39,200 1,967 Climbing Washington Center
Tue 08:11:43 AM 38.6483 -75.4003 201° Southwest 461 531 40,500 1,438 Climbing Washington Center
Tue 08:12:44 AM 38.5381 -75.4856 211° Southwest 456 525 42,100 1,261 Climbing Washington Center
Tue 08:13:42 AM 38.4339 -75.5836 216° Southwest 461 531 43,000 454 Climbing Washington Center
Tue 08:14:43 AM 38.3211 -75.6792 214° Southwest 478 550 43,000  Level Washington Center
Tue 08:15:44 AM 38.2000 -75.7714 211° Southwest 496 571 43,000  Level Washington Center
Tue 08:16:44 AM 38.0831 -75.8714 214° Southwest 510 587 43,000  Level Washington Center
Tue 08:17:43 AM 37.9681 -75.9736 215° Southwest 510 587 43,000  Level Washington Center
Tue 08:18:44 AM 37.8489 -76.0731 213° Southwest 510 587 43,000  Level Washington Center
Tue 08:19:44 AM 37.7297 -76.1719 213° Southwest 516 594 43,000  Level Washington Center
Tue 08:20:42 AM 37.6122 -76.2708 214° Southwest 511 588 43,000  Level Washington Center
Tue 08:21:43 AM 37.4908 -76.3692 213° Southwest 511 588 43,000  Level Washington Center
Tue 08:22:43 AM 37.3733 -76.4672 214° Southwest 511 588 43,000  Level Washington Center
Tue 08:23:43 AM 37.2536 -76.5650 213° Southwest 516 594 43,000  Level Washington Center
Tue 08:24:44 AM 37.1317 -76.6653 213° Southwest 516 594 43,000  Level Washington Center
Tue 08:25:42 AM 37.0119 -76.7625 213° Southwest 516 594 43,000  Level Washington Center
Tue 08:26:43 AM 36.8961 -76.8619 214° Southwest 510 587 43,000  Level Washington Center
Tue 08:27:44 AM 36.7783 -76.9586 213° Southwest 510 587 43,000  Level Washington Center
Tue 08:28:44 AM 36.6625 -77.0600 215° Southwest 515 593 43,000  Level Washington Center
Tue 08:29:42 AM 36.5483 -77.1692 218° Southwest 520 598 43,000  Level Washington Center
Tue 08:30:42 AM 36.4342 -77.2778 217° Southwest 520 598 43,000  Level Washington Center
Tue 08:31:43 AM 36.3222 -77.3811 217° Southwest 520 598 43,000  Level Washington Center
Tue 08:32:44 AM 36.2036 -77.4967 218° Southwest 507 583 43,000  Level Washington Center
Tue 08:33:44 AM 36.0892 -77.6019 217° Southwest 507 583 43,000  Level Washington Center
Tue 08:34:43 AM 35.9767 -77.7044 216° Southwest 507 583 43,000  Level Washington Center
Tue 08:35:43 AM 35.8583 -77.7986 213° Southwest 507 583 43,000  Level Washington Center
Tue 08:36:42 AM 35.7397 -77.8925 213° Southwest 507 583 43,000  Level Washington Center
Tue 08:37:42 AM 35.6272 -77.9889 215° Southwest 513 590 43,000  Level Washington Center
Tue 08:38:43 AM 35.5164 -78.0953 218° Southwest 508 585 43,000  Level Washington Center
Tue 08:39:44 AM 35.4058 -78.1989 217° Southwest 508 585 43,000  Level Washington Center
Tue 08:40:41 AM 35.2969 -78.3047 218° Southwest 508 585 43,000  Level Washington Center
Tue 08:41:42 AM 35.1861 -78.4131 219° Southwest 513 590 43,000  Level Washington Center
Tue 08:42:42 AM 35.0792 -78.5183 219° Southwest 513 590 43,000  Level Washington Center
Tue 08:43:43 AM 34.9700 -78.6233 218° Southwest 508 585 43,000  Level Washington Center
Tue 08:44:44 AM 34.8589 -78.7281 218° Southwest 508 585 43,000  Level Washington Center
Tue 08:46:16 AM 34.7008 -78.8775 218° Southwest 518 596 43,000  Level Jacksonville Center
Tue 08:47:16 AM 34.5894 -78.9811 217° Southwest 518 596 43,000 -1,350 Level Jacksonville Center
Tue 08:48:16 AM 34.4800 -79.0917 220° Southwest 518 596 40,300 -3,300 Descending Jacksonville Center
Tue 08:49:16 AM 34.3683 -79.1947 217° Southwest 518 596 36,400 -8,150 Descending Jacksonville Center
Tue 08:50:16 AM 34.2589 -79.2975 218° Southwest 513 590 24,000 -4,350 Descending Jacksonville Center
Tue 08:51:16 AM 34.1428 -79.4025 217° Southwest 519 597 27,700 550 Climbing Jacksonville Center
Tue 08:52:16 AM 34.0411 -79.4944 217° Southwest 503 579 25,100 -2,350 Descending Jacksonville Center
Tue 08:53:16 AM 33.9436 -79.5933 220° Southwest 480 552 23,000 -1,050 Descending Jacksonville Center
Tue 08:54:16 AM 33.8478 -79.6894 220° Southwest 468 539 23,000  Level Jacksonville Center
Tue 08:55:16 AM 33.7503 -79.7853 219° Southwest 468 539 23,000  Level Jacksonville Center
Tue 08:56:16 AM 33.6503 -79.8811 219° Southwest 463 533 23,000 -800 Level Jacksonville Center
Tue 08:57:16 AM 33.5522 -79.9767 219° Southwest 463 533 21,400 -2,250 Descending Jacksonville Center
Tue 08:58:16 AM 33.4606 -80.0669 219° Southwest 457 526 18,500 -2,700 Descending Jacksonville Center
Tue 08:59:16 AM 33.3725 -80.1517 219° Southwest 440 506 16,000 -2,650 Descending Jacksonville Center
Tue 09:00:16 AM 33.2867 -80.2339 219° Southwest 415 478 13,200 -2,500 Descending Jacksonville Center
Tue 09:01:16 AM 33.1967 -80.3233 220° Southwest 399 459 11,000 -1,100 Descending Jacksonville Center
Tue 09:02:16 AM 33.1128 -80.4028 218° Southwest 392 451 11,000 -50 Level Jacksonville Center
Tue 09:03:16 AM 33.0369 -80.4767 219° Southwest 392 451 10,900 -50 Descending Jacksonville Center
Tue 09:04:16 AM 32.9550 -80.5531 218° Southwest 392 451 10,900  Level Jacksonville Center
Tue 09:05:16 AM 32.8728 -80.6319 219° Southwest 392 451 10,900 -500 Level Jacksonville Center
Tue 09:06:16 AM 32.7928 -80.7056 218° Southwest 387 445 9,900 -1,300 Descending Jacksonville Center
Tue 09:07:16 AM 32.7311 -80.7664 220° Southwest 341 392 8,300 -950 Descending Jacksonville Center
Tue 09:08:16 AM 32.6717 -80.8294 222° Southwest 293 337 8,000 -150 Descending Jacksonville Center
Tue 09:09:16 AM 32.6039 -80.8925 218° Southwest 284 327 8,000  Level Jacksonville Center
Tue 09:10:16 AM 32.5461 -80.9456 218° Southwest 284 327 8,000 -50 Level Jacksonville Center
Tue 09:11:16 AM 32.4783 -81.0086 218° Southwest 290 334 7,900 -900 Descending Jacksonville Center
Tue 09:12:16 AM 32.4186 -81.0642 218° Southwest 290 334 6,200 -1,650 Descending Jacksonville Center
Tue 09:13:16 AM 32.3586 -81.1194 218° Southwest 290 334 4,600 -1,100 Descending Jacksonville Center
Tue 09:14:16 AM 32.3031 -81.1719 219° Southwest 276 318 4,000 -300 Descending Jacksonville Center
Tue 09:15:16 AM 32.2639 -81.2144 223° Southwest 236 272 4,000 -650 Level Jacksonville Center
Tue 09:16:16 AM 32.2442 -81.2861 252° West 223 257 2,700 -1,000 Descending Jacksonville Center
Tue 09:17:16 AM 32.2303 -81.3503 256° West 199 229 2,000 -350 Descending Jacksonville Center
Tue 09:18:16 AM 32.2036 -81.3875 230° Southwest 170 196 2,000  Level Jacksonville Center
Tue 09:19:16 AM 32.1594 -81.3758 167° South 144 166 2,000 -50 Level Jacksonville Center
Tue 09:20:16 AM 32.1339 -81.3347 126° Southeast 171 197 1,900 -500 Descending Jacksonville Center
Tue 09:21:16 AM 32.1292 -81.2833 96° East 146 168 1,000 -800 Descending Jacksonville Center
Tue 09:22:16 AM 32.1286 -81.2417 91° East 133 153 300 -400 Descending Jacksonville Center
Tue 09:23:16 AM 32.1261 -81.2047 95° East 133 153 200 5,350 Descending Jacksonville Center
Tue 09:24:16 AM 32.1256 -81.1606 91° East 133 153 11,000 10,800 Climbing Jacksonville Center

Login

Don't have an account? Register now (free) for customized features, flight alerts, and more!